sensor_id;sensor_type;location;lat;lon;timestamp;P1;durP1;ratioP1;P2;durP2;ratioP2
46845;SDS011;33947;46.804;134.252;2022-08-18T00:00:17;7.70;;;2.85;;
46845;SDS011;33947;46.804;134.252;2022-08-18T00:06:46;8.02;;;3.03;;
46845;SDS011;33947;46.804;134.252;2022-08-18T00:09:51;11.68;;;3.38;;
46845;SDS011;33947;46.804;134.252;2022-08-18T00:12:56;13.23;;;3.33;;
46845;SDS011;33947;46.804;134.252;2022-08-18T00:16:03;4.40;;;2.60;;
46845;SDS011;33947;46.804;134.252;2022-08-18T00:19:07;14.48;;;3.40;;
46845;SDS011;33947;46.804;134.252;2022-08-18T00:22:13;9.93;;;3.20;;
46845;SDS011;33947;46.804;134.252;2022-08-18T00:25:21;8.80;;;3.10;;
46845;SDS011;33947;46.804;134.252;2022-08-18T00:28:26;6.45;;;2.97;;
46845;SDS011;33947;46.804;134.252;2022-08-18T00:31:31;6.80;;;3.17;;
46845;SDS011;33947;46.804;134.252;2022-08-18T00:34:36;8.18;;;3.20;;
46845;SDS011;33947;46.804;134.252;2022-08-18T00:37:41;6.47;;;3.20;;
46845;SDS011;33947;46.804;134.252;2022-08-18T00:40:47;9.98;;;3.35;;
46845;SDS011;33947;46.804;134.252;2022-08-18T00:43:56;6.10;;;2.80;;
46845;SDS011;33947;46.804;134.252;2022-08-18T00:50:05;8.27;;;3.08;;
46845;SDS011;33947;46.804;134.252;2022-08-18T00:56:22;5.80;;;2.75;;
46845;SDS011;33947;46.804;134.252;2022-08-18T01:02:35;8.95;;;3.08;;
46845;SDS011;33947;46.804;134.252;2022-08-18T01:05:54;23.23;;;6.13;;
46845;SDS011;33947;46.804;134.252;2022-08-18T01:09:19;7.57;;;3.20;;
46845;SDS011;33947;46.804;134.252;2022-08-18T01:12:25;7.10;;;3.08;;
46845;SDS011;33947;46.804;134.252;2022-08-18T01:15:48;5.43;;;3.33;;
46845;SDS011;33947;46.804;134.252;2022-08-18T01:18:53;12.80;;;3.08;;
46845;SDS011;33947;46.804;134.252;2022-08-18T01:25:38;7.30;;;2.90;;
46845;SDS011;33947;46.804;134.252;2022-08-18T01:29:06;5.68;;;2.83;;
46845;SDS011;33947;46.804;134.252;2022-08-18T01:32:21;10.68;;;3.78;;
46845;SDS011;33947;46.804;134.252;2022-08-18T01:35:27;6.18;;;3.08;;
46845;SDS011;33947;46.804;134.252;2022-08-18T01:38:44;11.90;;;3.60;;
46845;SDS011;33947;46.804;134.252;2022-08-18T01:41:51;11.02;;;9.00;;
46845;SDS011;33947;46.804;134.252;2022-08-18T01:44:56;8.85;;;3.83;;
46845;SDS011;33947;46.804;134.252;2022-08-18T01:48:01;7.63;;;3.20;;
46845;SDS011;33947;46.804;134.252;2022-08-18T01:51:07;7.80;;;3.50;;
46845;SDS011;33947;46.804;134.252;2022-08-18T01:54:13;14.48;;;3.88;;
46845;SDS011;33947;46.804;134.252;2022-08-18T01:57:19;7.20;;;3.83;;
46845;SDS011;33947;46.804;134.252;2022-08-18T02:00:24;8.32;;;3.25;;
46845;SDS011;33947;46.804;134.252;2022-08-18T02:03:37;11.98;;;3.30;;
46845;SDS011;33947;46.804;134.252;2022-08-18T02:12:54;9.02;;;3.63;;
46845;SDS011;33947;46.804;134.252;2022-08-18T02:16:00;11.35;;;3.17;;
46845;SDS011;33947;46.804;134.252;2022-08-18T02:19:05;7.28;;;3.05;;
46845;SDS011;33947;46.804;134.252;2022-08-18T02:22:11;5.95;;;3.13;;
46845;SDS011;33947;46.804;134.252;2022-08-18T02:25:18;17.27;;;4.55;;
46845;SDS011;33947;46.804;134.252;2022-08-18T02:28:23;5.70;;;3.38;;
46845;SDS011;33947;46.804;134.252;2022-08-18T02:31:32;6.70;;;3.33;;
46845;SDS011;33947;46.804;134.252;2022-08-18T02:34:36;5.93;;;3.08;;
46845;SDS011;33947;46.804;134.252;2022-08-18T02:37:42;12.98;;;4.95;;
46845;SDS011;33947;46.804;134.252;2022-08-18T02:40:55;8.57;;;3.30;;
46845;SDS011;33947;46.804;134.252;2022-08-18T02:44:04;6.07;;;3.05;;
46845;SDS011;33947;46.804;134.252;2022-08-18T02:47:10;10.68;;;3.53;;
46845;SDS011;33947;46.804;134.252;2022-08-18T02:53:19;16.77;;;6.20;;
46845;SDS011;33947;46.804;134.252;2022-08-18T02:56:26;6.38;;;3.38;;
46845;SDS011;33947;46.804;134.252;2022-08-18T02:59:44;8.35;;;3.55;;
46845;SDS011;33947;46.804;134.252;2022-08-18T03:02:50;6.93;;;3.28;;
46845;SDS011;33947;46.804;134.252;2022-08-18T03:05:56;14.43;;;3.97;;
46845;SDS011;33947;46.804;134.252;2022-08-18T03:09:01;17.02;;;9.25;;
46845;SDS011;33947;46.804;134.252;2022-08-18T03:12:09;8.68;;;3.72;;
46845;SDS011;33947;46.804;134.252;2022-08-18T03:15:14;9.38;;;4.90;;
46845;SDS011;33947;46.804;134.252;2022-08-18T03:18:20;9.05;;;3.47;;
46845;SDS011;33947;46.804;134.252;2022-08-18T03:21:26;9.18;;;3.38;;
46845;SDS011;33947;46.804;134.252;2022-08-18T03:24:33;8.38;;;3.75;;
46845;SDS011;33947;46.804;134.252;2022-08-18T03:27:38;7.63;;;3.17;;
46845;SDS011;33947;46.804;134.252;2022-08-18T03:30:43;6.95;;;3.50;;
46845;SDS011;33947;46.804;134.252;2022-08-18T03:33:50;8.65;;;3.40;;
46845;SDS011;33947;46.804;134.252;2022-08-18T03:36:55;6.82;;;3.03;;
46845;SDS011;33947;46.804;134.252;2022-08-18T03:40:01;7.53;;;3.30;;
46845;SDS011;33947;46.804;134.252;2022-08-18T03:43:06;7.45;;;3.33;;
46845;SDS011;33947;46.804;134.252;2022-08-18T03:46:31;9.13;;;3.23;;
46845;SDS011;33947;46.804;134.252;2022-08-18T03:49:36;6.40;;;3.28;;
46845;SDS011;33947;46.804;134.252;2022-08-18T03:52:41;8.77;;;3.80;;
46845;SDS011;33947;46.804;134.252;2022-08-18T03:55:45;3.92;;;2.90;;
46845;SDS011;33947;46.804;134.252;2022-08-18T03:59:00;11.05;;;3.15;;
46845;SDS011;33947;46.804;134.252;2022-08-18T04:02:06;12.45;;;3.72;;
46845;SDS011;33947;46.804;134.252;2022-08-18T04:05:11;4.97;;;3.20;;
46845;SDS011;33947;46.804;134.252;2022-08-18T04:08:17;6.80;;;3.78;;
46845;SDS011;33947;46.804;134.252;2022-08-18T04:11:22;5.95;;;3.00;;
46845;SDS011;33947;46.804;134.252;2022-08-18T04:14:27;3.38;;;2.72;;
46845;SDS011;33947;46.804;134.252;2022-08-18T04:17:35;14.48;;;3.72;;
46845;SDS011;33947;46.804;134.252;2022-08-18T04:21:03;9.48;;;3.00;;
46845;SDS011;33947;46.804;134.252;2022-08-18T04:24:11;6.20;;;3.17;;
46845;SDS011;33947;46.804;134.252;2022-08-18T04:27:17;7.35;;;3.10;;
46845;SDS011;33947;46.804;134.252;2022-08-18T04:30:23;7.40;;;3.15;;
46845;SDS011;33947;46.804;134.252;2022-08-18T04:33:28;7.90;;;3.00;;
46845;SDS011;33947;46.804;134.252;2022-08-18T04:36:33;12.52;;;3.70;;
46845;SDS011;33947;46.804;134.252;2022-08-18T04:39:38;5.68;;;3.10;;
46845;SDS011;33947;46.804;134.252;2022-08-18T04:42:43;6.28;;;2.90;;
46845;SDS011;33947;46.804;134.252;2022-08-18T04:45:48;10.23;;;3.35;;
46845;SDS011;33947;46.804;134.252;2022-08-18T04:48:54;7.15;;;3.25;;
46845;SDS011;33947;46.804;134.252;2022-08-18T04:52:04;10.18;;;3.30;;
46845;SDS011;33947;46.804;134.252;2022-08-18T04:55:46;12.30;;;3.20;;
46845;SDS011;33947;46.804;134.252;2022-08-18T04:58:53;5.95;;;2.90;;
46845;SDS011;33947;46.804;134.252;2022-08-18T05:02:02;10.77;;;3.80;;
46845;SDS011;33947;46.804;134.252;2022-08-18T05:05:16;4.72;;;2.80;;
46845;SDS011;33947;46.804;134.252;2022-08-18T05:08:21;5.78;;;3.30;;
46845;SDS011;33947;46.804;134.252;2022-08-18T05:11:26;4.68;;;2.83;;
46845;SDS011;33947;46.804;134.252;2022-08-18T05:14:32;5.15;;;2.80;;
46845;SDS011;33947;46.804;134.252;2022-08-18T05:17:38;6.55;;;2.72;;
46845;SDS011;33947;46.804;134.252;2022-08-18T05:20:42;5.15;;;2.85;;
46845;SDS011;33947;46.804;134.252;2022-08-18T05:26:54;8.52;;;3.33;;
46845;SDS011;33947;46.804;134.252;2022-08-18T05:29:59;4.75;;;2.92;;
46845;SDS011;33947;46.804;134.252;2022-08-18T05:33:06;11.35;;;3.20;;
46845;SDS011;33947;46.804;134.252;2022-08-18T05:36:49;8.15;;;3.30;;
46845;SDS011;33947;46.804;134.252;2022-08-18T05:39:54;7.60;;;2.97;;
46845;SDS011;33947;46.804;134.252;2022-08-18T05:43:01;8.45;;;3.20;;
46845;SDS011;33947;46.804;134.252;2022-08-18T05:46:08;7.40;;;3.25;;
46845;SDS011;33947;46.804;134.252;2022-08-18T05:49:13;7.80;;;3.20;;
46845;SDS011;33947;46.804;134.252;2022-08-18T05:55:43;6.60;;;2.63;;
46845;SDS011;33947;46.804;134.252;2022-08-18T05:59:20;10.55;;;3.75;;
46845;SDS011;33947;46.804;134.252;2022-08-18T06:02:32;12.00;;;3.10;;
46845;SDS011;33947;46.804;134.252;2022-08-18T06:05:58;7.97;;;2.88;;
46845;SDS011;33947;46.804;134.252;2022-08-18T06:09:16;5.53;;;2.90;;
46845;SDS011;33947;46.804;134.252;2022-08-18T06:12:34;15.93;;;4.30;;
46845;SDS011;33947;46.804;134.252;2022-08-18T06:26:12;7.25;;;3.00;;
46845;SDS011;33947;46.804;134.252;2022-08-18T06:29:35;6.55;;;2.88;;
46845;SDS011;33947;46.804;134.252;2022-08-18T06:32:54;8.65;;;3.60;;
46845;SDS011;33947;46.804;134.252;2022-08-18T06:39:30;4.80;;;2.45;;
46845;SDS011;33947;46.804;134.252;2022-08-18T06:42:36;4.00;;;2.70;;
46845;SDS011;33947;46.804;134.252;2022-08-18T06:45:43;5.20;;;2.70;;
46845;SDS011;33947;46.804;134.252;2022-08-18T06:48:55;11.73;;;2.85;;
46845;SDS011;33947;46.804;134.252;2022-08-18T06:55:34;5.03;;;2.63;;
46845;SDS011;33947;46.804;134.252;2022-08-18T06:58:48;6.90;;;2.72;;
46845;SDS011;33947;46.804;134.252;2022-08-18T07:02:00;3.45;;;2.72;;
46845;SDS011;33947;46.804;134.252;2022-08-18T07:05:20;5.43;;;2.97;;
46845;SDS011;33947;46.804;134.252;2022-08-18T07:11:57;5.07;;;2.80;;
46845;SDS011;33947;46.804;134.252;2022-08-18T07:15:02;4.72;;;2.70;;
46845;SDS011;33947;46.804;134.252;2022-08-18T07:18:11;4.78;;;3.00;;
46845;SDS011;33947;46.804;134.252;2022-08-18T07:21:24;7.35;;;2.65;;
46845;SDS011;33947;46.804;134.252;2022-08-18T07:24:46;4.93;;;3.15;;
46845;SDS011;33947;46.804;134.252;2022-08-18T07:27:53;8.55;;;2.85;;
46845;SDS011;33947;46.804;134.252;2022-08-18T07:34:20;4.20;;;2.50;;
46845;SDS011;33947;46.804;134.252;2022-08-18T07:37:34;5.07;;;2.75;;
46845;SDS011;33947;46.804;134.252;2022-08-18T07:40:47;9.97;;;2.70;;
46845;SDS011;33947;46.804;134.252;2022-08-18T07:47:16;8.65;;;2.80;;
46845;SDS011;33947;46.804;134.252;2022-08-18T07:50:21;7.65;;;2.80;;
46845;SDS011;33947;46.804;134.252;2022-08-18T07:57:44;11.40;;;3.20;;
46845;SDS011;33947;46.804;134.252;2022-08-18T08:01:04;8.98;;;3.13;;
46845;SDS011;33947;46.804;134.252;2022-08-18T08:07:57;8.48;;;3.05;;
46845;SDS011;33947;46.804;134.252;2022-08-18T08:14:50;6.97;;;3.10;;
46845;SDS011;33947;46.804;134.252;2022-08-18T08:18:10;9.93;;;3.25;;
46845;SDS011;33947;46.804;134.252;2022-08-18T08:21:20;8.18;;;2.83;;
46845;SDS011;33947;46.804;134.252;2022-08-18T08:24:34;8.10;;;2.92;;
46845;SDS011;33947;46.804;134.252;2022-08-18T08:28:04;9.27;;;2.97;;
46845;SDS011;33947;46.804;134.252;2022-08-18T08:34:51;8.15;;;2.92;;
46845;SDS011;33947;46.804;134.252;2022-08-18T08:38:11;13.05;;;3.10;;
46845;SDS011;33947;46.804;134.252;2022-08-18T08:41:57;10.07;;;3.03;;
46845;SDS011;33947;46.804;134.252;2022-08-18T08:45:30;4.85;;;2.90;;
46845;SDS011;33947;46.804;134.252;2022-08-18T08:48:40;6.35;;;3.28;;
46845;SDS011;33947;46.804;134.252;2022-08-18T08:51:52;6.40;;;3.25;;
46845;SDS011;33947;46.804;134.252;2022-08-18T08:55:10;5.30;;;3.35;;
46845;SDS011;33947;46.804;134.252;2022-08-18T08:58:38;9.52;;;3.28;;
46845;SDS011;33947;46.804;134.252;2022-08-18T09:01:54;12.27;;;6.20;;
46845;SDS011;33947;46.804;134.252;2022-08-18T09:05:10;13.48;;;7.82;;
46845;SDS011;33947;46.804;134.252;2022-08-18T09:16:02;12.85;;;6.38;;
46845;SDS011;33947;46.804;134.252;2022-08-18T09:22:46;12.00;;;4.97;;
46845;SDS011;33947;46.804;134.252;2022-08-18T09:25:57;13.02;;;4.05;;
46845;SDS011;33947;46.804;134.252;2022-08-18T09:32:32;6.13;;;3.95;;
46845;SDS011;33947;46.804;134.252;2022-08-18T09:36:13;7.55;;;3.70;;
46845;SDS011;33947;46.804;134.252;2022-08-18T09:39:32;9.15;;;4.60;;
46845;SDS011;33947;46.804;134.252;2022-08-18T09:43:07;5.75;;;3.60;;
46845;SDS011;33947;46.804;134.252;2022-08-18T09:46:13;8.88;;;3.70;;
46845;SDS011;33947;46.804;134.252;2022-08-18T09:49:48;6.32;;;3.60;;
46845;SDS011;33947;46.804;134.252;2022-08-18T09:59:58;17.58;;;5.50;;
46845;SDS011;33947;46.804;134.252;2022-08-18T10:03:29;14.48;;;5.10;;
46845;SDS011;33947;46.804;134.252;2022-08-18T10:06:35;16.23;;;6.15;;
46845;SDS011;33947;46.804;134.252;2022-08-18T10:09:53;7.25;;;4.72;;
46845;SDS011;33947;46.804;134.252;2022-08-18T10:13:41;11.48;;;5.35;;
46845;SDS011;33947;46.804;134.252;2022-08-18T10:20:41;13.85;;;5.30;;
46845;SDS011;33947;46.804;134.252;2022-08-18T10:23:48;23.35;;;6.43;;
46845;SDS011;33947;46.804;134.252;2022-08-18T10:31:04;22.65;;;5.93;;
46845;SDS011;33947;46.804;134.252;2022-08-18T10:34:12;18.02;;;5.72;;
46845;SDS011;33947;46.804;134.252;2022-08-18T10:37:54;8.68;;;4.55;;
46845;SDS011;33947;46.804;134.252;2022-08-18T10:41:01;16.63;;;5.47;;
46845;SDS011;33947;46.804;134.252;2022-08-18T10:44:19;13.73;;;5.00;;
46845;SDS011;33947;46.804;134.252;2022-08-18T10:47:31;13.32;;;5.50;;
46845;SDS011;33947;46.804;134.252;2022-08-18T10:54:28;13.05;;;5.10;;
46845;SDS011;33947;46.804;134.252;2022-08-18T11:01:23;11.85;;;5.30;;
46845;SDS011;33947;46.804;134.252;2022-08-18T11:04:48;9.05;;;4.65;;
46845;SDS011;33947;46.804;134.252;2022-08-18T11:08:03;8.65;;;4.10;;
46845;SDS011;33947;46.804;134.252;2022-08-18T11:11:22;17.13;;;4.60;;
46845;SDS011;33947;46.804;134.252;2022-08-18T11:17:58;7.82;;;4.28;;
46845;SDS011;33947;46.804;134.252;2022-08-18T11:24:44;12.38;;;5.35;;
46845;SDS011;33947;46.804;134.252;2022-08-18T11:27:51;13.23;;;5.57;;
46845;SDS011;33947;46.804;134.252;2022-08-18T11:30:57;12.70;;;4.65;;
46845;SDS011;33947;46.804;134.252;2022-08-18T11:34:02;14.60;;;4.82;;
46845;SDS011;33947;46.804;134.252;2022-08-18T11:40:52;13.35;;;4.57;;
46845;SDS011;33947;46.804;134.252;2022-08-18T11:44:20;12.65;;;5.85;;
46845;SDS011;33947;46.804;134.252;2022-08-18T11:47:28;11.88;;;6.13;;
46845;SDS011;33947;46.804;134.252;2022-08-18T11:50:42;13.82;;;5.65;;
46845;SDS011;33947;46.804;134.252;2022-08-18T12:01:07;21.35;;;11.27;;
46845;SDS011;33947;46.804;134.252;2022-08-18T12:04:13;17.75;;;6.18;;
46845;SDS011;33947;46.804;134.252;2022-08-18T12:07:34;21.35;;;6.05;;
46845;SDS011;33947;46.804;134.252;2022-08-18T12:10:39;14.93;;;5.90;;
46845;SDS011;33947;46.804;134.252;2022-08-18T12:16:53;9.60;;;4.07;;
46845;SDS011;33947;46.804;134.252;2022-08-18T12:19:58;10.32;;;3.88;;
46845;SDS011;33947;46.804;134.252;2022-08-18T12:23:04;7.88;;;3.85;;
46845;SDS011;33947;46.804;134.252;2022-08-18T12:26:09;15.57;;;4.13;;
46845;SDS011;33947;46.804;134.252;2022-08-18T12:29:33;9.23;;;3.90;;
46845;SDS011;33947;46.804;134.252;2022-08-18T12:32:46;11.82;;;4.18;;
46845;SDS011;33947;46.804;134.252;2022-08-18T12:36:03;8.60;;;4.30;;
46845;SDS011;33947;46.804;134.252;2022-08-18T12:39:08;7.97;;;4.50;;
46845;SDS011;33947;46.804;134.252;2022-08-18T12:42:15;8.45;;;3.63;;
46845;SDS011;33947;46.804;134.252;2022-08-18T12:45:21;8.55;;;3.65;;
46845;SDS011;33947;46.804;134.252;2022-08-18T12:48:29;8.10;;;3.53;;
46845;SDS011;33947;46.804;134.252;2022-08-18T12:51:35;7.57;;;3.40;;
46845;SDS011;33947;46.804;134.252;2022-08-18T12:54:40;7.38;;;3.65;;
46845;SDS011;33947;46.804;134.252;2022-08-18T12:57:57;7.07;;;3.05;;
46845;SDS011;33947;46.804;134.252;2022-08-18T13:01:02;5.82;;;3.30;;
46845;SDS011;33947;46.804;134.252;2022-08-18T13:04:07;6.10;;;3.40;;
46845;SDS011;33947;46.804;134.252;2022-08-18T13:07:15;7.22;;;3.38;;
46845;SDS011;33947;46.804;134.252;2022-08-18T13:10:20;9.63;;;3.45;;
46845;SDS011;33947;46.804;134.252;2022-08-18T13:13:45;4.20;;;3.03;;
46845;SDS011;33947;46.804;134.252;2022-08-18T13:16:55;5.70;;;3.22;;
46845;SDS011;33947;46.804;134.252;2022-08-18T13:20:10;9.52;;;3.92;;
46845;SDS011;33947;46.804;134.252;2022-08-18T13:23:16;7.00;;;3.60;;
46845;SDS011;33947;46.804;134.252;2022-08-18T13:26:28;8.80;;;3.95;;
46845;SDS011;33947;46.804;134.252;2022-08-18T13:29:35;10.75;;;4.20;;
46845;SDS011;33947;46.804;134.252;2022-08-18T13:32:43;4.88;;;3.25;;
46845;SDS011;33947;46.804;134.252;2022-08-18T13:36:02;7.93;;;3.38;;
46845;SDS011;33947;46.804;134.252;2022-08-18T13:39:07;7.93;;;4.10;;
46845;SDS011;33947;46.804;134.252;2022-08-18T13:42:12;5.13;;;3.38;;
46845;SDS011;33947;46.804;134.252;2022-08-18T13:45:32;7.40;;;3.30;;
46845;SDS011;33947;46.804;134.252;2022-08-18T13:48:38;6.47;;;3.50;;
46845;SDS011;33947;46.804;134.252;2022-08-18T13:51:43;4.38;;;3.15;;
46845;SDS011;33947;46.804;134.252;2022-08-18T13:54:52;6.78;;;3.20;;
46845;SDS011;33947;46.804;134.252;2022-08-18T13:57:57;8.02;;;3.20;;
46845;SDS011;33947;46.804;134.252;2022-08-18T14:01:04;6.63;;;3.45;;
46845;SDS011;33947;46.804;134.252;2022-08-18T14:04:30;5.60;;;3.40;;
46845;SDS011;33947;46.804;134.252;2022-08-18T14:07:36;9.70;;;3.20;;
46845;SDS011;33947;46.804;134.252;2022-08-18T14:10:43;7.20;;;3.42;;
46845;SDS011;33947;46.804;134.252;2022-08-18T14:13:51;4.90;;;3.15;;
46845;SDS011;33947;46.804;134.252;2022-08-18T14:16:58;7.05;;;3.20;;
46845;SDS011;33947;46.804;134.252;2022-08-18T14:20:03;5.07;;;3.55;;
46845;SDS011;33947;46.804;134.252;2022-08-18T14:23:29;6.18;;;3.47;;
46845;SDS011;33947;46.804;134.252;2022-08-18T14:26:55;4.82;;;3.35;;
46845;SDS011;33947;46.804;134.252;2022-08-18T14:30:00;5.72;;;3.47;;
46845;SDS011;33947;46.804;134.252;2022-08-18T14:33:18;8.95;;;3.40;;
46845;SDS011;33947;46.804;134.252;2022-08-18T14:36:44;7.28;;;3.17;;
46845;SDS011;33947;46.804;134.252;2022-08-18T14:39:49;9.07;;;3.70;;
46845;SDS011;33947;46.804;134.252;2022-08-18T14:42:55;9.32;;;3.38;;
46845;SDS011;33947;46.804;134.252;2022-08-18T14:46:01;6.05;;;3.45;;
46845;SDS011;33947;46.804;134.252;2022-08-18T14:49:08;6.22;;;3.90;;
46845;SDS011;33947;46.804;134.252;2022-08-18T14:52:14;8.73;;;3.40;;
46845;SDS011;33947;46.804;134.252;2022-08-18T14:55:19;5.18;;;3.58;;
46845;SDS011;33947;46.804;134.252;2022-08-18T14:58:25;4.47;;;3.33;;
46845;SDS011;33947;46.804;134.252;2022-08-18T15:01:31;6.90;;;3.78;;
46845;SDS011;33947;46.804;134.252;2022-08-18T15:04:44;5.80;;;3.88;;
46845;SDS011;33947;46.804;134.252;2022-08-18T15:08:00;9.25;;;3.83;;
46845;SDS011;33947;46.804;134.252;2022-08-18T15:11:06;5.47;;;3.53;;
46845;SDS011;33947;46.804;134.252;2022-08-18T15:14:13;6.05;;;4.18;;
46845;SDS011;33947;46.804;134.252;2022-08-18T15:17:21;10.60;;;4.47;;
46845;SDS011;33947;46.804;134.252;2022-08-18T15:20:26;4.50;;;3.60;;
46845;SDS011;33947;46.804;134.252;2022-08-18T15:23:32;5.18;;;3.53;;
46845;SDS011;33947;46.804;134.252;2022-08-18T15:27:00;6.00;;;3.70;;
46845;SDS011;33947;46.804;134.252;2022-08-18T15:30:15;4.97;;;4.10;;
46845;SDS011;33947;46.804;134.252;2022-08-18T15:33:21;7.95;;;3.65;;
46845;SDS011;33947;46.804;134.252;2022-08-18T15:36:33;5.53;;;3.55;;
46845;SDS011;33947;46.804;134.252;2022-08-18T15:39:38;5.95;;;3.60;;
46845;SDS011;33947;46.804;134.252;2022-08-18T15:42:44;6.68;;;4.00;;
46845;SDS011;33947;46.804;134.252;2022-08-18T15:45:54;8.18;;;4.05;;
46845;SDS011;33947;46.804;134.252;2022-08-18T15:49:00;6.72;;;4.15;;
46845;SDS011;33947;46.804;134.252;2022-08-18T15:52:11;11.00;;;3.97;;
46845;SDS011;33947;46.804;134.252;2022-08-18T15:55:20;7.22;;;3.90;;
46845;SDS011;33947;46.804;134.252;2022-08-18T15:58:26;6.00;;;3.80;;
46845;SDS011;33947;46.804;134.252;2022-08-18T16:01:32;10.30;;;4.40;;
46845;SDS011;33947;46.804;134.252;2022-08-18T16:04:45;6.00;;;4.03;;
46845;SDS011;33947;46.804;134.252;2022-08-18T16:07:51;7.45;;;4.05;;
46845;SDS011;33947;46.804;134.252;2022-08-18T16:11:04;7.82;;;5.15;;
46845;SDS011;33947;46.804;134.252;2022-08-18T16:14:15;9.43;;;4.60;;
46845;SDS011;33947;46.804;134.252;2022-08-18T16:17:20;10.45;;;4.88;;
46845;SDS011;33947;46.804;134.252;2022-08-18T16:20:33;7.90;;;4.30;;
46845;SDS011;33947;46.804;134.252;2022-08-18T16:23:40;10.57;;;4.65;;
46845;SDS011;33947;46.804;134.252;2022-08-18T16:26:46;9.95;;;4.10;;
46845;SDS011;33947;46.804;134.252;2022-08-18T16:33:01;5.50;;;3.72;;
46845;SDS011;33947;46.804;134.252;2022-08-18T16:36:09;11.38;;;4.22;;
46845;SDS011;33947;46.804;134.252;2022-08-18T16:39:16;10.02;;;4.25;;
46845;SDS011;33947;46.804;134.252;2022-08-18T16:42:21;11.32;;;4.43;;
46845;SDS011;33947;46.804;134.252;2022-08-18T16:45:26;7.53;;;4.00;;
46845;SDS011;33947;46.804;134.252;2022-08-18T16:51:36;8.65;;;3.85;;
46845;SDS011;33947;46.804;134.252;2022-08-18T16:54:42;8.18;;;4.43;;
46845;SDS011;33947;46.804;134.252;2022-08-18T16:57:47;6.35;;;4.20;;
46845;SDS011;33947;46.804;134.252;2022-08-18T17:01:16;8.48;;;4.40;;
46845;SDS011;33947;46.804;134.252;2022-08-18T17:04:51;6.45;;;4.13;;
46845;SDS011;33947;46.804;134.252;2022-08-18T17:07:55;11.65;;;4.65;;
46845;SDS011;33947;46.804;134.252;2022-08-18T17:11:06;8.27;;;4.32;;
46845;SDS011;33947;46.804;134.252;2022-08-18T17:14:13;7.90;;;4.40;;
46845;SDS011;33947;46.804;134.252;2022-08-18T17:17:21;8.40;;;4.22;;
46845;SDS011;33947;46.804;134.252;2022-08-18T17:20:26;6.30;;;4.30;;
46845;SDS011;33947;46.804;134.252;2022-08-18T17:23:32;13.68;;;4.65;;
46845;SDS011;33947;46.804;134.252;2022-08-18T17:26:48;6.18;;;4.35;;
46845;SDS011;33947;46.804;134.252;2022-08-18T17:30:25;8.02;;;4.50;;
46845;SDS011;33947;46.804;134.252;2022-08-18T17:33:35;8.88;;;5.20;;
46845;SDS011;33947;46.804;134.252;2022-08-18T17:36:51;8.32;;;4.53;;
46845;SDS011;33947;46.804;134.252;2022-08-18T17:40:03;7.47;;;4.40;;
46845;SDS011;33947;46.804;134.252;2022-08-18T17:43:21;7.03;;;4.38;;
46845;SDS011;33947;46.804;134.252;2022-08-18T17:46:28;9.68;;;4.35;;
46845;SDS011;33947;46.804;134.252;2022-08-18T17:49:41;9.88;;;4.43;;
46845;SDS011;33947;46.804;134.252;2022-08-18T17:53:26;9.55;;;4.82;;
46845;SDS011;33947;46.804;134.252;2022-08-18T17:56:36;9.40;;;5.00;;
46845;SDS011;33947;46.804;134.252;2022-08-18T18:00:05;7.97;;;4.57;;
46845;SDS011;33947;46.804;134.252;2022-08-18T18:03:17;13.55;;;4.97;;
46845;SDS011;33947;46.804;134.252;2022-08-18T18:09:51;7.55;;;4.65;;
46845;SDS011;33947;46.804;134.252;2022-08-18T18:16:19;6.40;;;4.70;;
46845;SDS011;33947;46.804;134.252;2022-08-18T18:19:27;7.85;;;4.68;;
46845;SDS011;33947;46.804;134.252;2022-08-18T18:22:35;14.45;;;4.88;;
46845;SDS011;33947;46.804;134.252;2022-08-18T18:25:40;6.95;;;5.10;;
46845;SDS011;33947;46.804;134.252;2022-08-18T18:28:45;8.32;;;5.32;;
46845;SDS011;33947;46.804;134.252;2022-08-18T18:31:53;10.70;;;4.78;;
46845;SDS011;33947;46.804;134.252;2022-08-18T18:41:43;7.45;;;5.10;;
46845;SDS011;33947;46.804;134.252;2022-08-18T18:44:50;9.05;;;5.32;;
46845;SDS011;33947;46.804;134.252;2022-08-18T19:08:55;7.45;;;5.60;;
46845;SDS011;33947;46.804;134.252;2022-08-18T19:12:18;13.95;;;6.03;;
46845;SDS011;33947;46.804;134.252;2022-08-18T19:18:38;9.85;;;6.03;;
46845;SDS011;33947;46.804;134.252;2022-08-18T19:28:48;14.73;;;6.60;;
46845;SDS011;33947;46.804;134.252;2022-08-18T19:32:17;10.43;;;6.55;;
46845;SDS011;33947;46.804;134.252;2022-08-18T19:35:27;12.85;;;7.30;;
46845;SDS011;33947;46.804;134.252;2022-08-18T19:42:03;14.52;;;7.88;;
46845;SDS011;33947;46.804;134.252;2022-08-18T19:45:30;12.32;;;6.82;;
46845;SDS011;33947;46.804;134.252;2022-08-18T19:48:41;15.38;;;6.85;;
46845;SDS011;33947;46.804;134.252;2022-08-18T19:51:51;10.07;;;6.60;;
46845;SDS011;33947;46.804;134.252;2022-08-18T20:02:16;13.57;;;6.88;;
46845;SDS011;33947;46.804;134.252;2022-08-18T20:09:01;9.95;;;6.70;;
46845;SDS011;33947;46.804;134.252;2022-08-18T20:15:21;16.63;;;7.38;;
46845;SDS011;33947;46.804;134.252;2022-08-18T20:18:29;16.33;;;7.57;;
46845;SDS011;33947;46.804;134.252;2022-08-18T20:21:45;12.75;;;6.80;;
46845;SDS011;33947;46.804;134.252;2022-08-18T20:28:20;10.10;;;6.45;;
46845;SDS011;33947;46.804;134.252;2022-08-18T20:35:26;16.98;;;7.80;;
46845;SDS011;33947;46.804;134.252;2022-08-18T20:38:39;16.20;;;8.25;;
46845;SDS011;33947;46.804;134.252;2022-08-18T20:41:49;14.27;;;6.90;;
46845;SDS011;33947;46.804;134.252;2022-08-18T20:44:55;12.48;;;7.05;;
46845;SDS011;33947;46.804;134.252;2022-08-18T20:48:09;13.23;;;7.22;;
46845;SDS011;33947;46.804;134.252;2022-08-18T20:51:57;14.95;;;7.47;;
46845;SDS011;33947;46.804;134.252;2022-08-18T20:55:23;11.65;;;7.07;;
46845;SDS011;33947;46.804;134.252;2022-08-18T21:01:52;15.05;;;7.30;;
46845;SDS011;33947;46.804;134.252;2022-08-18T21:04:59;13.65;;;7.70;;
46845;SDS011;33947;46.804;134.252;2022-08-18T21:11:26;14.25;;;7.80;;
46845;SDS011;33947;46.804;134.252;2022-08-18T21:14:37;15.68;;;7.97;;
46845;SDS011;33947;46.804;134.252;2022-08-18T21:17:42;11.30;;;8.25;;
46845;SDS011;33947;46.804;134.252;2022-08-18T21:20:48;19.42;;;8.20;;
46845;SDS011;33947;46.804;134.252;2022-08-18T21:23:55;13.50;;;7.57;;
46845;SDS011;33947;46.804;134.252;2022-08-18T21:27:44;27.63;;;9.68;;
46845;SDS011;33947;46.804;134.252;2022-08-18T21:30:52;13.70;;;8.30;;
46845;SDS011;33947;46.804;134.252;2022-08-18T21:34:30;14.15;;;8.60;;
46845;SDS011;33947;46.804;134.252;2022-08-18T21:37:39;17.98;;;8.25;;
46845;SDS011;33947;46.804;134.252;2022-08-18T21:40:45;15.32;;;7.97;;
46845;SDS011;33947;46.804;134.252;2022-08-18T21:43:54;17.67;;;7.72;;
46845;SDS011;33947;46.804;134.252;2022-08-18T21:47:14;12.88;;;7.60;;
46845;SDS011;33947;46.804;134.252;2022-08-18T21:50:26;15.00;;;6.68;;
46845;SDS011;33947;46.804;134.252;2022-08-18T21:53:36;11.65;;;6.07;;
46845;SDS011;33947;46.804;134.252;2022-08-18T21:56:41;15.52;;;6.13;;
46845;SDS011;33947;46.804;134.252;2022-08-18T22:03:23;10.93;;;5.78;;
46845;SDS011;33947;46.804;134.252;2022-08-18T22:09:56;9.38;;;5.50;;
46845;SDS011;33947;46.804;134.252;2022-08-18T22:13:23;17.20;;;6.00;;